Time;durP1;ratioP1;P1;durP2;ratioP2;P2;SDS_P1;SDS_P2;PMS_P1;PMS_P2;Temp;Humidity;BMP_temperature;BMP_pressure;BME280_temperature;BME280_humidity;BME280_pressure;Samples;Min_cycle;Max_cycle;Signal;HPM_P1;HPM_P2
2021/04/22 04:17:35;;;;;;;14.23;9.80;;;;;;;7.34;81.34;99022.25;4955146;29;20134;-74
2021/04/22 04:20:01;;;;;;;17.70;11.27;;;;;;;7.35;81.18;99033.41;4956218;28;20047;-75
2021/04/22 04:22:26;;;;;;;12.50;10.05;;;;;;;7.41;80.90;99034.28;4956295;28;20031;-74
2021/04/22 04:24:52;;;;;;;14.90;10.48;;;;;;;7.38;80.88;99038.56;4956256;28;20082;-74
2021/04/22 04:27:17;;;;;;;13.48;10.02;;;;;;;7.43;80.94;99036.84;4973691;28;20388;-74
2021/04/22 04:29:46;;;;;;;18.55;11.25;;;;;;;7.35;81.17;99038.56;4975350;28;20119;-77
2021/04/22 04:32:11;;;;;;;24.03;11.67;;;;;;;7.26;81.61;99042.03;4882703;28;20062;-74
2021/04/22 04:34:37;;;;;;;14.30;10.95;;;;;;;7.19;81.46;99045.47;4955613;29;20126;-74
2021/04/22 04:37:03;;;;;;;21.00;11.70;;;;;;;7.17;81.52;99047.19;4956074;28;20030;-74
2021/04/22 04:39:28;;;;;;;17.08;12.25;;;;;;;7.01;82.34;99048.91;4955937;28;20057;-73
2021/04/22 04:41:54;;;;;;;15.90;12.25;;;;;;;7.12;81.99;99057.50;4955770;28;20031;-72
2021/04/22 04:44:19;;;;;;;15.07;11.73;;;;;;;7.07;81.94;99072.09;4955773;28;20147;-73
2021/04/22 04:46:44;;;;;;;21.00;13.18;;;;;;;7.00;82.27;99070.34;4954549;28;20114;-73
2021/04/22 04:49:10;;;;;;;15.77;11.95;;;;;;;7.04;82.21;99076.38;4955995;28;20146;-74
2021/04/22 04:51:35;;;;;;;18.90;12.73;;;;;;;6.93;82.57;99077.22;4955708;28;20027;-74
2021/04/22 04:54:02;;;;;;;17.50;13.18;;;;;;;7.08;82.24;99085.84;4808107;28;20567;-74
2021/04/22 04:56:28;;;;;;;20.83;11.50;;;;;;;7.19;81.30;99081.53;4857113;28;20041;-74
2021/04/22 04:58:53;;;;;;;17.60;12.35;;;;;;;7.26;81.80;99085.84;4809076;28;20043;-73
2021/04/22 05:01:19;;;;;;;16.63;10.48;;;;;;;7.44;81.45;99085.81;4854288;28;20039;-73
2021/04/22 05:03:44;;;;;;;17.70;11.38;;;;;;;7.34;82.29;99089.25;4857061;28;20382;-73
2021/04/22 05:06:10;;;;;;;18.23;11.35;;;;;;;7.43;81.87;99089.28;4807767;28;20036;-74
2021/04/22 05:08:35;;;;;;;14.73;10.50;;;;;;;7.43;81.73;99094.41;4861353;28;20042;-74
2021/04/22 05:11:01;;;;;;;23.05;13.15;;;;;;;7.46;81.35;99094.44;4806158;28;20040;-74
2021/04/22 05:13:27;;;;;;;18.63;11.02;;;;;;;7.28;82.15;99099.59;4856912;28;20039;-74
2021/04/22 05:15:53;;;;;;;14.25;11.18;;;;;;;7.31;82.12;99107.31;4955419;28;20090;-73
2021/04/22 05:18:18;;;;;;;15.40;10.30;;;;;;;7.50;81.50;99104.75;4955327;28;20055;-74
2021/04/22 05:20:44;;;;;;;16.42;10.60;;;;;;;7.63;80.62;99106.44;4955116;28;20023;-74
2021/04/22 05:23:09;;;;;;;14.45;9.95;;;;;;;7.75;80.50;99115.91;4905957;28;20039;-74
2021/04/22 05:25:34;;;;;;;15.45;10.52;;;;;;;7.86;80.16;99115.00;4955035;28;20399;-74
2021/04/22 05:28:00;;;;;;;13.82;10.75;;;;;;;7.93;79.61;99121.91;4955014;28;20034;-74
2021/04/22 05:30:25;;;;;;;15.98;10.40;;;;;;;7.98;79.27;99125.31;4954816;28;20027;-74
2021/04/22 05:32:51;;;;;;;17.17;10.15;;;;;;;7.99;79.10;99121.88;4955016;28;20070;-74
2021/04/22 05:35:16;;;;;;;14.25;10.32;;;;;;;8.23;78.54;99122.69;4953649;28;20122;-73
2021/04/22 05:37:42;;;;;;;16.63;10.38;;;;;;;8.36;77.82;99132.13;4954993;28;20042;-74
2021/04/22 05:40:08;;;;;;;15.60;10.95;;;;;;;8.58;76.69;99134.63;4954238;28;20086;-74
2021/04/22 05:42:33;;;;;;;14.95;10.65;;;;;;;8.71;75.84;99134.56;4954785;28;20024;-73
2021/04/22 05:44:59;;;;;;;21.63;10.77;;;;;;;8.97;75.39;99134.44;4954612;28;20536;-73
2021/04/22 05:47:24;;;;;;;17.27;10.88;;;;;;;8.85;75.59;99134.50;4905594;28;20389;-73
2021/04/22 05:49:49;;;;;;;13.35;10.80;;;;;;;8.84;76.29;99135.34;4954513;29;20038;-73
2021/04/22 05:52:15;;;;;;;17.13;11.88;;;;;;;8.92;75.83;99122.41;4954726;28;20054;-74
2021/04/22 05:54:40;;;;;;;14.30;10.65;;;;;;;8.92;75.39;99138.75;4954607;28;20102;-74
2021/04/22 05:57:06;;;;;;;15.35;12.25;;;;;;;9.19;74.70;99142.91;4954533;28;20027;-74
2021/04/22 05:59:31;;;;;;;23.48;13.00;;;;;;;9.27;74.34;99142.84;4954327;28;20375;-74
2021/04/22 06:01:56;;;;;;;22.63;11.80;;;;;;;9.17;74.99;99156.72;4905007;28;20035;-74
2021/04/22 06:04:21;;;;;;;22.80;13.48;;;;;;;9.29;74.00;99150.63;4942137;28;20054;-74
2021/04/22 06:06:47;;;;;;;21.63;13.60;;;;;;;9.25;74.25;99154.94;4940870;28;20171;-74
2021/04/22 06:09:12;;;;;;;23.60;14.05;;;;;;;9.31;74.56;99154.91;4947005;28;20078;-74
2021/04/22 06:11:37;;;;;;;22.45;14.85;;;;;;;9.38;74.05;99164.34;4955197;28;20022;-73
2021/04/22 06:14:03;;;;;;;22.13;16.27;;;;;;;9.48;72.78;99166.00;4934989;29;20042;-73
2021/04/22 06:16:28;;;;;;;22.73;15.73;;;;;;;9.44;72.96;99164.28;4934729;29;20530;-73
2021/04/22 06:18:54;;;;;;;27.08;17.48;;;;;;;9.65;71.18;99162.41;4934234;29;20031;-72
2021/04/22 06:21:19;;;;;;;25.88;16.15;;;;;;;9.71;71.05;99167.50;4942563;28;20033;-73
2021/04/22 06:23:45;;;;;;;28.13;17.02;;;;;;;9.71;71.43;99170.97;4960867;28;20092;-73
2021/04/22 06:26:10;;;;;;;21.58;16.67;;;;;;;10.19;69.27;99175.72;4959432;28;20372;-73
2021/04/22 06:28:35;;;;;;;25.13;15.98;;;;;;;10.11;68.89;99182.72;4959395;28;20054;-73
2021/04/22 06:31:01;;;;;;;26.52;17.00;;;;;;;10.23;68.44;99182.59;4934158;28;20427;-73
2021/04/22 06:33:26;;;;;;;29.23;17.45;;;;;;;10.22;68.01;99186.06;4939721;29;20027;-73
2021/04/22 06:35:51;;;;;;;24.92;16.80;;;;;;;10.18;67.94;99195.56;4943898;28;20488;-73
2021/04/22 06:38:17;;;;;;;24.35;15.63;;;;;;;10.07;67.79;99189.66;4934478;29;20110;-73
2021/04/22 06:40:43;;;;;;;26.58;16.05;;;;;;;9.47;69.71;99202.19;4934418;29;20062;-73
2021/04/22 06:43:12;;;;;;;29.63;16.75;;;;;;;9.11;69.84;99205.88;4933441;29;20118;-72
2021/04/22 06:45:38;;;;;;;29.13;17.70;;;;;;;9.25;70.30;99209.25;4934655;29;20385;-73
2021/04/22 06:48:06;;;;;;;51.33;18.17;;;;;;;9.24;69.61;99212.69;4934458;29;20082;-73
2021/04/22 06:50:31;;;;;;;48.83;18.98;;;;;;;9.17;67.89;99213.59;4933288;29;20024;-73
2021/04/22 06:52:56;;;;;;;31.60;15.60;;;;;;;9.31;68.46;99219.53;4936668;29;20440;-73
2021/04/22 06:55:24;;;;;;;37.92;16.83;;;;;;;9.01;68.66;99216.25;4956134;28;20060;-73
2021/04/22 06:57:49;;;;;;;53.88;17.02;;;;;;;9.12;68.26;99223.94;4963444;28;20109;-73
2021/04/22 07:00:19;;;;;;;29.98;15.77;;;;;;;9.06;68.20;99223.13;4950713;28;20062;-73
2021/04/22 07:02:45;;;;;;;29.52;15.05;;;;;;;9.41;66.99;99230.69;4938490;29;20028;-73
2021/04/22 07:05:11;;;;;;;20.35;14.15;;;;;;;9.90;66.67;99233.78;4937740;29;20675;-73
2021/04/22 07:07:37;;;;;;;22.38;15.35;;;;;;;10.37;65.35;99232.53;4937704;29;20408;-73
2021/04/22 07:10:04;;;;;;;28.83;15.95;;;;;;;10.68;64.06;99227.88;4937983;29;20028;-73
2021/04/22 07:12:30;;;;;;;30.08;15.57;;;;;;;9.99;66.18;99232.84;4938174;29;20559;-73
2021/04/22 07:14:55;;;;;;;27.23;16.33;;;;;;;10.43;66.35;99232.47;4938318;29;20059;-73
2021/04/22 07:17:21;;;;;;;30.50;14.90;;;;;;;11.11;63.51;99236.91;4937201;29;20038;-73
2021/04/22 07:19:46;;;;;;;21.50;15.32;;;;;;;10.81;63.54;99234.66;4937691;29;20534;-73
2021/04/22 07:22:12;;;;;;;27.73;16.17;;;;;;;10.50;64.46;99239.31;4937772;28;20024;-73
2021/04/22 07:24:39;;;;;;;28.40;14.68;;;;;;;11.00;62.71;99240.47;4893616;28;20085;-73
2021/04/22 07:27:05;;;;;;;26.58;15.35;;;;;;;10.82;63.53;99245.88;4941652;29;20028;-73
2021/04/22 07:29:31;;;;;;;22.88;15.77;;;;;;;10.58;64.08;99240.97;4886714;28;20060;-73
2021/04/22 07:31:56;;;;;;;24.02;14.48;;;;;;;10.45;65.05;99250.63;4918604;29;20115;-73
2021/04/22 07:34:22;;;;;;;27.65;14.02;;;;;;;11.09;62.66;99251.63;4918904;29;20028;-74
2021/04/22 07:36:47;;;;;;;27.83;14.55;;;;;;;10.61;63.75;99259.09;4917512;29;20028;-73
2021/04/22 07:39:13;;;;;;;28.90;14.48;;;;;;;11.41;61.37;99252.06;4873153;28;20426;-73
2021/04/22 07:41:38;;;;;;;26.55;14.57;;;;;;;11.27;61.51;99259.19;4917460;29;20023;-73
2021/04/22 07:44:04;;;;;;;24.70;13.77;;;;;;;11.28;62.20;99260.88;4918466;29;20036;-73
2021/04/22 07:46:29;;;;;;;22.75;14.45;;;;;;;11.27;61.30;99261.78;4918550;29;20036;-73
2021/04/22 07:48:54;;;;;;;27.05;14.77;;;;;;;11.19;61.40;99261.00;4918428;29;20091;-73
2021/04/22 07:51:20;;;;;;;27.08;14.75;;;;;;;10.94;62.46;99261.31;4918323;29;20016;-73
2021/04/22 07:53:45;;;;;;;36.03;14.63;;;;;;;11.04;62.84;99268.09;4917277;29;20101;-73
2021/04/22 07:56:10;;;;;;;26.15;14.32;;;;;;;11.64;60.29;99263.84;4918234;29;20032;-73
2021/04/22 07:58:36;;;;;;;23.30;14.73;;;;;;;11.48;61.67;99258.88;4938661;29;20384;-73
2021/04/22 08:01:02;;;;;;;21.70;13.63;;;;;;;10.81;62.76;99259.72;4918260;28;20052;-73
2021/04/22 08:03:27;;;;;;;24.27;13.15;;;;;;;11.92;60.74;99269.53;4871989;28;20071;-74
2021/04/22 08:05:56;;;;;;;24.00;13.02;;;;;;;12.02;57.85;99266.75;4917551;29;20074;-74
2021/04/22 08:08:23;;;;;;;22.20;12.85;;;;;;;11.94;59.36;99267.75;4918210;29;20032;-74
2021/04/22 08:10:50;;;;;;;26.88;12.68;;;;;;;12.34;57.01;99275.75;4917649;29;20028;-74
2021/04/22 08:13:17;;;;;;;20.98;12.00;;;;;;;11.80;59.25;99276.59;4916097;29;20478;-75
2021/04/22 08:15:45;;;;;;;21.75;11.23;;;;;;;12.17;56.30;99277.78;4891717;28;20042;-74
2021/04/22 08:18:11;;;;;;;23.92;11.73;;;;;;;12.27;55.90;99274.13;4942327;29;20027;-75
2021/04/22 08:20:38;;;;;;;23.88;11.20;;;;;;;11.42;58.92;99279.72;4944504;29;20034;-74
2021/04/22 08:23:05;;;;;;;18.60;10.88;;;;;;;12.17;58.11;99269.97;4938199;29;20478;-75
2021/04/22 08:25:34;;;;;;;17.83;11.15;;;;;;;11.24;57.51;99280.81;4920808;29;20052;-74
2021/04/22 08:28:00;;;;;;;19.73;10.40;;;;;;;11.22;58.43;99285.19;4956132;28;20488;-74
2021/04/22 08:30:30;;;;;;;23.38;11.38;;;;;;;11.54;57.89;99289.06;4922275;29;20031;-75
2021/04/22 08:32:56;;;;;;;21.75;10.50;;;;;;;12.39;54.73;99292.13;4917731;29;20140;-75
2021/04/22 08:35:22;;;;;;;20.58;9.65;;;;;;;13.77;52.22;99284.19;4917716;29;20039;-75
2021/04/22 08:37:47;;;;;;;15.85;9.82;;;;;;;13.43;51.66;99287.56;4917474;29;20040;-75
2021/04/22 08:40:14;;;;;;;19.02;10.40;;;;;;;14.42;48.36;99296.56;4883682;28;20039;-74
2021/04/22 08:42:40;;;;;;;21.13;10.65;;;;;;;13.91;50.63;99289.97;4910811;28;20043;-75
2021/04/22 08:45:08;;;;;;;18.63;10.10;;;;;;;14.52;49.36;99288.50;4917614;29;20025;-75
2021/04/22 08:47:34;;;;;;;18.15;10.63;;;;;;;14.75;47.77;99287.91;4917340;29;20569;-75
2021/04/22 08:50:00;;;;;;;19.17;9.77;;;;;;;14.04;49.17;99294.00;4916891;29;20050;-74
2021/04/22 08:52:25;;;;;;;18.55;9.73;;;;;;;16.27;44.04;99286.00;4916586;29;20094;-74
2021/04/22 08:54:52;;;;;;;32.30;14.85;;;;;;;18.28;39.55;99287.38;4917285;29;20517;-74
2021/04/22 08:57:18;;;;;;;18.70;10.10;;;;;;;19.88;36.60;99282.03;4928064;29;20533;-74
2021/04/22 08:59:44;;;;;;;17.88;9.38;;;;;;;20.43;34.71;99279.31;4927224;29;20050;-74
2021/04/22 09:02:09;;;;;;;19.25;9.48;;;;;;;21.00;33.64;99285.19;4916718;29;20739;-74
2021/04/22 09:04:35;;;;;;;16.67;9.48;;;;;;;20.29;34.56;99295.78;4916631;29;20043;-74
2021/04/22 09:07:01;;;;;;;19.20;10.02;;;;;;;19.13;36.73;99283.69;4922070;29;20020;-74
2021/04/22 09:09:27;;;;;;;15.35;9.57;;;;;;;16.52;41.23;99307.81;4916916;29;20046;-74
2021/04/22 09:11:52;;;;;;;19.60;9.15;;;;;;;17.52;41.35;99293.84;4924888;29;20477;-74
2021/04/22 09:14:20;;;;;;;16.67;10.23;;;;;;;13.60;47.65;99311.50;4915601;29;20103;-74
2021/04/22 09:16:47;;;;;;;19.33;9.68;;;;;;;14.81;45.62;99302.53;4916281;29;20032;-74
2021/04/22 09:19:16;;;;;;;15.32;9.05;;;;;;;16.30;41.64;99307.69;4916860;29;20083;-73
2021/04/22 09:21:49;;;;;;;18.83;9.15;;;;;;;16.15;43.00;99303.81;4916506;29;20032;-74
2021/04/22 09:24:18;;;;;;;13.43;8.27;;;;;;;18.90;35.48;99291.72;4916720;29;20047;-73
2021/04/22 09:26:51;;;;;;;13.00;8.65;;;;;;;15.16;41.96;99307.63;4945998;29;20430;-74
2021/04/22 09:29:37;;;;;;;16.08;8.32;;;;;;;16.58;40.24;99301.53;4934828;29;20511;-76
2021/04/22 09:32:24;;;;;;;17.25;8.40;;;;;;;18.82;36.89;99294.69;4932202;29;20031;-74
2021/04/22 09:34:53;;;;;;;13.65;7.95;;;;;;;19.09;36.24;99291.78;4919310;29;20031;-74
2021/04/22 09:37:21;;;;;;;13.48;7.88;;;;;;;20.81;33.51;99289.72;4928696;29;20056;-74
2021/04/22 09:39:48;;;;;;;11.85;7.20;;;;;;;16.41;39.93;99312.56;4868296;28;20505;-74
2021/04/22 09:42:14;;;;;;;14.73;7.97;;;;;;;16.15;40.66;99313.44;4916351;29;20035;-73
2021/04/22 09:44:48;;;;;;;16.00;8.02;;;;;;;16.38;41.48;99315.28;4916396;29;20040;-73
2021/04/22 09:47:24;;;;;;;15.88;8.48;;;;;;;18.86;36.75;99292.81;4916200;29;20508;-73
2021/04/22 09:49:52;;;;;;;11.50;7.45;;;;;;;17.10;37.40;99307.59;4915335;29;20032;-73
2021/04/22 09:52:20;;;;;;;15.90;6.53;;;;;;;20.56;33.96;99290.97;4916180;29;20111;-73
2021/04/22 09:54:49;;;;;;;12.90;6.70;;;;;;;19.78;34.03;99302.66;4916161;29;20099;-74
2021/04/22 09:57:20;;;;;;;12.18;6.88;;;;;;;17.71;37.95;99307.94;4916388;29;20039;-74
2021/04/22 09:59:46;;;;;;;14.65;7.30;;;;;;;15.59;41.89;99310.75;4915691;29;20051;-74
2021/04/22 10:02:11;;;;;;;14.52;6.88;;;;;;;17.36;39.63;99306.66;4915392;29;20079;-74
2021/04/22 10:04:44;;;;;;;11.48;6.00;;;;;;;17.86;38.51;99306.53;4915879;29;20072;-74
2021/04/22 10:07:26;;;;;;;10.45;5.85;;;;;;;20.43;33.53;99290.69;4915746;29;20076;-74
2021/04/22 10:09:54;;;;;;;11.10;6.97;;;;;;;19.36;33.19;99305.44;4915679;29;20028;-74
2021/04/22 10:12:37;;;;;;;13.63;7.05;;;;;;;21.61;30.86;99303.00;4915180;29;20035;-74
2021/04/22 10:15:09;;;;;;;13.30;5.85;;;;;;;20.64;30.60;99304.56;4915730;29;20024;-74
2021/04/22 10:17:35;;;;;;;10.10;6.00;;;;;;;21.22;30.34;99301.56;4915878;29;20052;-74
2021/04/22 10:20:12;;;;;;;12.32;5.38;;;;;;;20.72;29.99;99297.16;4914298;29;20035;-74
2021/04/22 10:22:44;;;;;;;12.60;5.40;;;;;;;20.99;29.37;99296.66;4915606;29;20504;-74
2021/04/22 10:25:12;;;;;;;9.25;4.78;;;;;;;20.19;28.94;99305.06;4914685;29;20042;-75
2021/04/22 10:27:39;;;;;;;12.32;4.70;;;;;;;21.37;26.29;99293.78;4915712;29;20039;-73
2021/04/22 10:30:13;;;;;;;7.00;3.72;;;;;;;21.75;25.42;99292.53;4916125;29;20015;-74
2021/04/22 10:32:40;;;;;;;8.98;4.30;;;;;;;20.63;26.59;99302.88;4915640;29;20099;-74
2021/04/22 10:35:07;;;;;;;8.07;4.25;;;;;;;22.10;25.77;99297.66;4915038;29;20478;-74
2021/04/22 10:37:34;;;;;;;7.38;3.90;;;;;;;21.47;25.69;99298.50;4914402;29;20359;-74
2021/04/22 10:40:01;;;;;;;9.35;3.47;;;;;;;21.93;23.78;99277.47;4926643;29;20027;-73
2021/04/22 10:42:27;;;;;;;12.38;3.90;;;;;;;20.82;25.66;99296.69;4925754;29;20036;-73
2021/04/22 10:44:52;;;;;;;6.22;3.45;;;;;;;22.68;24.63;99290.81;4925892;29;21442;-73
2021/04/22 10:47:23;;;;;;;14.27;5.65;;;;;;;21.64;26.89;99288.81;4925289;29;20134;-73
2021/04/22 10:49:50;;;;;;;13.63;5.05;;;;;;;22.37;26.09;99287.31;4923319;29;20031;-76
2021/04/22 10:52:17;;;;;;;14.77;5.15;;;;;;;22.02;26.71;99287.53;4925848;29;20030;-74
2021/04/22 10:54:45;;;;;;;11.20;5.00;;;;;;;20.82;29.32;99291.41;4925837;29;20059;-74
2021/04/22 10:57:15;;;;;;;12.52;5.13;;;;;;;20.46;28.61;99287.91;4925799;29;20035;-74
2021/04/22 10:59:43;;;;;;;;;;;;;;;20.29;29.67;99298.41;4924200;29;20043;-74
2021/04/22 11:02:20;;;;;;;11.32;4.85;;;;;;;21.25;27.43;99280.31;4925922;29;20021;-74
2021/04/22 11:04:48;;;;;;;10.82;4.78;;;;;;;21.60;27.30;99290.75;4878545;28;20047;-74
2021/04/22 11:07:24;;;;;;;10.73;5.80;;;;;;;22.07;27.07;99285.47;4926015;29;20032;-74
2021/04/22 11:09:52;;;;;;;12.27;4.95;;;;;;;21.18;27.96;99283.38;4925489;29;20086;-74
2021/04/22 11:12:35;;;;;;;9.07;4.28;;;;;;;21.28;27.47;99282.81;4926071;29;20078;-74
2021/04/22 11:15:02;;;;;;;11.13;5.00;;;;;;;21.01;27.70;99281.63;4926139;29;20031;-74
2021/04/22 11:17:38;;;;;;;6.50;4.03;;;;;;;21.50;26.69;99273.75;4925878;29;20040;-74
2021/04/22 11:20:15;;;;;;;12.18;6.32;;;;;;;22.19;25.98;99278.69;4925735;29;20503;-74
2021/04/22 11:22:41;;;;;;;12.40;4.40;;;;;;;22.59;24.58;99281.63;4925804;29;20039;-74
2021/04/22 11:25:09;;;;;;;9.15;4.22;;;;;;;21.11;25.54;99282.84;4925827;29;20034;-74
2021/04/22 11:27:49;;;;;;;10.95;3.38;;;;;;;19.40;27.65;99296.50;4921438;29;20063;-74
2021/04/22 11:30:26;;;;;;;9.05;3.55;;;;;;;18.65;28.28;99291.91;4922813;29;21354;-74
2021/04/22 11:32:53;;;;;;;8.30;3.80;;;;;;;20.68;27.34;99279.78;4924272;29;20027;-74
2021/04/22 11:35:21;;;;;;;10.93;3.45;;;;;;;21.96;26.23;99274.69;4925280;29;20032;-74
2021/04/22 11:37:51;;;;;;;8.07;4.55;;;;;;;21.54;25.30;99275.28;4925290;29;20035;-74
2021/04/22 11:40:18;;;;;;;10.15;4.18;;;;;;;21.40;25.40;99276.03;4923970;29;20032;-74
2021/04/22 11:42:49;;;;;;;6.63;3.50;;;;;;;20.14;27.14;99278.97;4923758;29;20067;-74
2021/04/22 11:45:27;;;;;;;9.15;2.90;;;;;;;19.17;25.14;99285.25;4923313;29;20120;-74
2021/04/22 11:47:56;;;;;;;7.70;3.58;;;;;;;20.15;26.77;99274.56;4923798;29;20036;-74
2021/04/22 11:50:30;;;;;;;9.25;4.05;;;;;;;20.34;25.92;99283.25;4922548;29;20035;-74
2021/04/22 11:53:00;;;;;;;8.82;3.35;;;;;;;20.64;25.81;99272.97;4923411;29;20039;-74
2021/04/22 11:55:29;;;;;;;19.15;10.55;;;;;;;20.92;24.42;99276.81;4923170;29;20027;-74
2021/04/22 11:58:08;;;;;;;9.65;3.28;;;;;;;20.12;24.65;99286.09;4923274;29;20027;-74
2021/04/22 12:00:42;;;;;;;5.40;3.28;;;;;;;19.46;25.68;99283.09;4922729;29;20043;-74
2021/04/22 12:03:12;;;;;;;7.82;3.35;;;;;;;18.36;27.04;99282.63;4922940;29;20047;-74
2021/04/22 12:05:38;;;;;;;6.65;2.75;;;;;;;18.01;27.14;99290.19;4922761;29;20023;-74
2021/04/22 12:08:10;;;;;;;11.45;2.97;;;;;;;17.31;26.70;99288.50;4922802;29;20035;-74
2021/04/22 12:10:44;;;;;;;7.50;3.22;;;;;;;16.52;28.59;99294.75;4922558;29;20563;-74
2021/04/22 12:13:12;;;;;;;10.40;3.58;;;;;;;17.01;28.01;99284.34;4927619;29;20190;-74
2021/04/22 12:15:43;;;;;;;13.98;3.63;;;;;;;17.12;29.04;99284.84;4928377;29;20059;-74
2021/04/22 12:18:11;;;;;;;7.53;3.33;;;;;;;17.31;28.62;99277.13;4928136;29;20040;-74
2021/04/22 12:20:38;;;;;;;5.93;3.00;;;;;;;16.66;28.08;99289.88;4927975;29;20032;-74
2021/04/22 12:23:03;;;;;;;7.15;3.25;;;;;;;15.63;27.85;99288.88;4927549;29;20605;-74
2021/04/22 12:25:29;;;;;;;13.88;3.40;;;;;;;16.43;29.14;99281.97;4927558;29;20110;-75
2021/04/22 12:28:01;;;;;;;12.73;3.63;;;;;;;16.38;29.10;99284.72;4927216;29;20051;-75
2021/04/22 12:30:46;;;;;;;13.18;3.47;;;;;;;16.41;28.93;99279.41;4927909;29;20066;-75
2021/04/22 12:33:16;;;;;;;13.75;6.45;;;;;;;16.58;29.86;99268.34;4928049;29;20074;-75
2021/04/22 12:35:45;;;;;;;9.55;3.85;;;;;;;16.14;27.60;99291.63;4927533;29;20114;-75
2021/04/22 12:38:18;;;;;;;10.73;3.05;;;;;;;15.92;27.76;99274.94;4927793;29;20625;-75
2021/04/22 12:40:45;;;;;;;7.57;3.25;;;;;;;16.10;29.39;99283.94;4927884;29;20039;-75
2021/04/22 12:43:11;;;;;;;10.18;3.60;;;;;;;14.71;30.20;99274.97;4927982;29;20057;-75
2021/04/22 12:45:37;;;;;;;13.65;3.90;;;;;;;16.32;28.45;99278.88;4927654;29;20681;-75
2021/04/22 12:48:05;;;;;;;7.50;3.10;;;;;;;16.02;27.70;99271.13;4927027;29;20051;-75
2021/04/22 12:50:39;;;;;;;12.52;3.25;;;;;;;16.61;26.59;99263.03;4926311;29;20055;-75
2021/04/22 12:53:07;;;;;;;6.88;2.63;;;;;;;15.70;27.90;99271.28;4927839;29;20031;-75
2021/04/22 12:55:35;;;;;;;8.70;2.38;;;;;;;15.86;27.32;99269.91;4927643;29;20573;-75
2021/04/22 12:58:03;;;;;;;6.78;2.78;;;;;;;15.75;27.46;99266.75;4927660;29;20032;-75
2021/04/22 13:00:31;;;;;;;9.63;2.88;;;;;;;15.01;26.10;99271.53;4926677;29;20039;-75
2021/04/22 13:03:07;;;;;;;5.85;3.25;;;;;;;15.53;23.78;99267.41;4927506;29;20095;-76
2021/04/22 13:05:33;;;;;;;7.30;2.75;;;;;;;15.97;24.00;99264.34;4927029;29;20040;-73
2021/04/22 13:07:58;;;;;;;5.65;2.50;;;;;;;16.23;23.16;99263.47;4927490;29;20493;-74
2021/04/22 13:10:27;;;;;;;7.32;2.30;;;;;;;15.30;23.79;99265.47;4926648;29;20094;-74
2021/04/22 13:12:53;;;;;;;3.13;1.88;;;;;;;14.94;21.38;99270.00;4926945;29;20477;-75
2021/04/22 13:15:18;;;;;;;5.40;2.30;;;;;;;14.40;23.84;99275.72;4926804;29;20043;-75
2021/04/22 13:17:44;;;;;;;6.65;2.42;;;;;;;15.75;24.82;99265.00;4927535;29;20649;-75
2021/04/22 13:20:23;;;;;;;9.38;2.22;;;;;;;16.01;24.40;99269.41;4927013;29;20023;-75
2021/04/22 13:22:50;;;;;;;5.23;2.53;;;;;;;15.82;22.22;99263.06;4926285;29;20556;-75
2021/04/22 13:25:16;;;;;;;5.75;2.53;;;;;;;15.88;22.40;99268.09;4927047;29;20028;-75
2021/04/22 13:27:42;;;;;;;6.95;2.40;;;;;;;15.99;23.77;99271.22;4926989;29;20106;-75
2021/04/22 13:30:08;;;;;;;3.55;2.38;;;;;;;16.25;24.90;99256.47;4927100;29;20032;-76
2021/04/22 13:32:33;;;;;;;7.75;2.55;;;;;;;15.01;25.09;99263.69;4926982;29;20024;-75
2021/04/22 13:35:00;;;;;;;7.80;2.83;;;;;;;16.10;25.50;99258.66;4926113;29;20479;-75
2021/04/22 13:37:28;;;;;;;10.23;3.03;;;;;;;15.93;24.80;99255.72;4926963;29;20032;-75
2021/04/22 13:39:54;;;;;;;4.78;2.20;;;;;;;15.12;25.29;99261.63;4926582;29;20118;-74
2021/04/22 13:42:25;;;;;;;4.60;2.60;;;;;;;15.59;24.75;99268.97;4926676;29;20075;-75
2021/04/22 13:44:52;;;;;;;8.38;3.35;;;;;;;15.83;24.09;99265.63;4926348;29;20035;-75
2021/04/22 13:47:20;;;;;;;4.63;2.20;;;;;;;16.13;24.40;99258.56;4926101;29;20031;-75
2021/04/22 13:49:50;;;;;;;5.57;2.67;;;;;;;15.53;24.97;99250.88;4926372;29;20041;-75
2021/04/22 13:52:21;;;;;;;8.32;2.90;;;;;;;14.68;27.22;99259.41;4926535;29;20023;-75
2021/04/22 13:54:51;;;;;;;5.30;2.55;;;;;;;15.48;28.47;99252.78;4926781;29;20036;-75
2021/04/22 13:57:20;;;;;;;8.60;2.78;;;;;;;16.31;26.69;99256.25;4925873;29;20032;-75
2021/04/22 13:59:48;;;;;;;7.55;2.90;;;;;;;14.62;27.21;99261.28;4926273;29;20033;-75
2021/04/22 14:02:16;;;;;;;11.10;2.72;;;;;;;15.03;27.47;99258.41;4925750;29;20036;-74
2021/04/22 14:04:44;;;;;;;5.47;2.70;;;;;;;15.07;27.28;99247.00;4926703;29;21212;-74
2021/04/22 14:07:10;;;;;;;10.30;2.80;;;;;;;15.02;27.02;99262.78;4926435;29;20054;-74
2021/04/22 14:09:37;;;;;;;10.18;3.15;;;;;;;14.59;28.07;99250.91;4925642;29;20477;-75
2021/04/22 14:12:08;;;;;;;7.82;2.90;;;;;;;14.38;28.28;99254.06;4926276;29;20194;-75
2021/04/22 14:14:35;;;;;;;6.03;2.67;;;;;;;15.37;27.81;99261.75;4926289;29;20114;-74
2021/04/22 14:17:01;;;;;;;4.78;2.50;;;;;;;15.01;27.50;99250.66;4926016;29;20059;-73
2021/04/22 14:19:29;;;;;;;7.30;2.85;;;;;;;15.76;27.60;99247.56;4926222;29;20038;-74
2021/04/22 14:21:56;;;;;;;9.93;3.20;;;;;;;14.36;27.88;99253.25;4925127;29;20027;-74
2021/04/22 14:24:22;;;;;;;10.35;2.58;;;;;;;15.59;25.97;99251.53;4926306;29;20050;-74
2021/04/22 14:26:50;;;;;;;10.52;2.83;;;;;;;15.75;25.75;99245.84;4926286;29;20067;-74
2021/04/22 14:29:17;;;;;;;7.20;2.28;;;;;;;16.44;25.30;99247.09;4926010;29;20057;-74
2021/04/22 14:31:44;;;;;;;7.50;2.78;;;;;;;15.27;26.07;99249.88;4925716;29;20027;-73
2021/04/22 14:34:11;;;;;;;4.60;2.45;;;;;;;15.84;26.50;99250.78;4925213;29;20035;-73
2021/04/22 14:36:36;;;;;;;24.30;13.77;;;;;;;16.28;26.34;99249.34;4926117;29;20032;-76
2021/04/22 14:39:05;;;;;;;5.18;3.35;;;;;;;16.20;26.77;99248.75;4926012;29;20042;-73
2021/04/22 14:41:31;;;;;;;15.13;2.47;;;;;;;16.38;25.88;99242.03;4925053;29;20028;-73
2021/04/22 14:43:57;;;;;;;20.08;2.88;;;;;;;16.42;24.68;99254.97;4925140;29;20144;-73
2021/04/22 14:46:22;;;;;;;4.88;2.28;;;;;;;15.97;25.57;99262.56;4925680;29;20028;-73
2021/04/22 14:48:48;;;;;;;8.68;2.70;;;;;;;15.97;24.20;99253.88;4926062;29;20048;-75
2021/04/22 14:51:14;;;;;;;3.42;2.08;;;;;;;15.78;24.77;99256.22;4925721;29;20102;-74
2021/04/22 14:53:39;;;;;;;8.52;2.15;;;;;;;16.08;23.75;99255.22;4926072;29;20102;-73
2021/04/22 14:56:05;;;;;;;7.68;2.50;;;;;;;16.05;24.27;99260.59;4925011;29;20046;-73
2021/04/22 14:58:30;;;;;;;7.55;2.30;;;;;;;16.13;24.64;99248.09;4925605;29;20039;-73
2021/04/22 15:00:56;;;;;;;5.88;2.20;;;;;;;15.98;23.57;99252.97;4924770;29;20091;-73
2021/04/22 15:03:21;;;;;;;6.50;1.92;;;;;;;15.81;25.05;99257.00;4925807;29;20028;-73
2021/04/22 15:05:46;;;;;;;8.57;2.80;;;;;;;16.12;24.84;99259.47;4925686;29;20126;-73
2021/04/22 15:08:14;;;;;;;5.32;2.17;;;;;;;15.55;24.93;99257.75;4925282;29;20032;-73
2021/04/22 15:10:40;;;;;;;6.28;2.60;;;;;;;16.27;23.97;99259.84;4925197;29;20039;-73
2021/04/22 15:13:06;;;;;;;6.95;2.50;;;;;;;16.20;23.37;99264.44;4924313;29;20058;-73
2021/04/22 15:15:32;;;;;;;5.25;2.15;;;;;;;16.09;24.32;99264.78;4929515;29;20074;-75
2021/04/22 15:17:58;;;;;;;9.38;2.67;;;;;;;15.98;24.45;99269.50;4929354;29;20031;-75
2021/04/22 15:20:24;;;;;;;9.25;2.45;;;;;;;16.27;24.08;99265.94;4929867;29;20039;-74
2021/04/22 15:22:54;;;;;;;10.10;2.53;;;;;;;15.42;24.70;99274.69;4929468;29;20039;-73
2021/04/22 15:25:19;;;;;;;7.97;2.17;;;;;;;15.94;23.89;99267.88;4929588;29;20035;-73
2021/04/22 15:27:47;;;;;;;7.38;2.47;;;;;;;16.01;23.92;99269.41;4929644;29;20039;-73
2021/04/22 15:30:13;;;;;;;7.20;2.42;;;;;;;15.40;24.46;99269.50;4929183;29;20039;-73
2021/04/22 15:32:45;;;;;;;8.95;2.97;;;;;;;16.06;24.80;99272.75;4929400;29;20511;-74
2021/04/22 15:35:16;;;;;;;6.75;2.58;;;;;;;16.39;23.99;99264.66;4929390;29;20500;-73
2021/04/22 15:37:44;;;;;;;8.13;2.70;;;;;;;16.00;24.25;99267.69;4929334;29;20111;-73
2021/04/22 15:40:10;;;;;;;5.97;1.90;;;;;;;15.84;24.47;99262.09;4928962;29;20034;-73
2021/04/22 15:42:36;;;;;;;6.03;2.30;;;;;;;16.53;24.04;99261.59;4928975;29;20085;-73
2021/04/22 15:45:03;;;;;;;7.47;2.40;;;;;;;16.53;23.13;99259.81;4929234;29;20047;-73